Terminal Aerodrome Forecast
Issued by NWS

Current Version | Previous Version | Text Only | Print | Product List | Glossary On
Versions: 1 2 3 4 5 6 7 8 9 10 11 12 13 14 15 16 17 18
000
FTUS44 KLZK 310500
TAFADF
TAF
KADF 310520Z 3106/0106 VRB03KT P6SM VCSH SCT010 BKN025
      TEMPO 3106/3108 5SM BR BKN010
     FM310800 VRB03KT 5SM BR SCT020 BKN060
      TEMPO 3109/3113 2SM BR BKN015
     FM311500 21007KT P6SM SCT040 SCT250
     FM010000 15006KT P6SM SCT250=

USA.gov is the U.S. government's official web portal to all federal, state and local government web resources and services.